Airfield :
LOGIN :

Register | Disclaimer

   EN    FR    IT 

 










Legend :    VFR   Marginal VFR   IFR   Intensive IFR   Very Intensive IFR
Visi :
Ceiling :
>= 8 km
>= 3000ft
5 to 8 km
1000 to 3000 ft
1500m to 5 km
500 to 1000 ft
800 to 1500m
200 to 500 ft
< 800m
< 200 ft
Symbols :   Thunderstorms  Fog  Heavy snow  Heavy precipitations  Wind > 20 kt
SIGMETs :     Misc.  Thunderstorms  Icing  Turbulence  Mountain Waves  Volcanic Ashes






- Airport Elevation : 466 ft


LHPA - Pápa

CURRENT METAR :
  • 011337Z 32008KT 9999 SHRA SCT030TCU BKN033 23/21 Q1004 RMK BLU

EXPIRED METARs :
  • 011320Z 34002KT 9999 -SHRA SCT030TCU BKN033 23/21 Q1005 RMK BLU
  • 011304Z 35002KT 9999 FEW006 BKN033 23/21 Q1004 RESHRA RMK BLU
  • 011256Z 14002KT 9999 -SHRA SCT030TCU BKN037 23/21 Q1005 RETSRA RMK BLU
  • 011239Z 21006KT 3000 TSRA FEW020CB SCT030TCU BKN033 24/22 Q1006 RMK YLO
  • 011234Z 24004KT 5000 -TSRA FEW020CB SCT030TCU BKN037 24/21 Q1006 RMK WHT
  • 011226Z 27004KT 8000 SHRA FEW020CB SCT030TCU BKN037 25/21 Q1005 RMK BLU
  • 011145Z 24006KT 9999 -SHRA FEW030TCU SCT040 BKN083 26/20 Q1005 NOSIG RMK BLU
  • 011132Z 24006KT 9999 -SHRA FEW030TCU SCT040 BKN083 27/20 Q1005 RMK BLU
  • 011045Z 15006KT 9999 FEW033 SCT083 BKN200 27/19 Q1004 TEMPO -SHRA -TSRA RMK BLU

TAF TAF LHPA
Valid from the 01 at 12:00 until the 02 at 12:00 UTC


011115Z 0112/0212 33014G24KT CAVOK
TEMPO 0112/0114 22012KT
PROB40
TEMPO 0112/0121 VRB24G42KT 5000 SHRA TSRA SCT020CB BKN035CB BKN100
BECMG 0121/0123 30007KT
TEMPO 0208/0212 32012KT 9999 SCT040



MET'MAP, your aeronautical weather chart ! - Copyright ORBIFLY December 2007 - Disclaimer

ORBIFLY MET'MAP TEAM :

Programming & Development : Alexandra Zaïnal
Concept & original design : Baudouin d'Aumeries
Assistance for programming : Marc-Olivier Méhu
Technical & hardware support : Manuel Goepfert

Contact : metmap@orbifly.com




SOURCES & CREDITS :

   NOAA